sensor_id;sensor_type;location;lat;lon;timestamp;P1;durP1;ratioP1;P2;durP2;ratioP2
23252;SDS011;11795;47.054;15.408;2023-04-07T00:00:03;7.1;;;4.7;;
23252;SDS011;11795;47.054;15.408;2023-04-07T00:02:00;7.1;;;4.7;;
23252;SDS011;11795;47.054;15.408;2023-04-07T00:04:00;6.5;;;4.7;;
23252;SDS011;11795;47.054;15.408;2023-04-07T00:06:00;6.5;;;4.7;;
23252;SDS011;11795;47.054;15.408;2023-04-07T00:08:00;7.2;;;4.9;;
23252;SDS011;11795;47.054;15.408;2023-04-07T00:10:00;7.2;;;4.9;;
23252;SDS011;11795;47.054;15.408;2023-04-07T00:12:01;7.2;;;4.9;;
23252;SDS011;11795;47.054;15.408;2023-04-07T00:14:00;8.9;;;4.9;;
23252;SDS011;11795;47.054;15.408;2023-04-07T00:16:00;8.9;;;4.9;;
23252;SDS011;11795;47.054;15.408;2023-04-07T00:18:00;5.7;;;4.7;;
23252;SDS011;11795;47.054;15.408;2023-04-07T00:20:00;5.7;;;4.7;;
23252;SDS011;11795;47.054;15.408;2023-04-07T00:22:00;5.7;;;4.7;;
23252;SDS011;11795;47.054;15.408;2023-04-07T00:24:00;5.9;;;4.7;;
23252;SDS011;11795;47.054;15.408;2023-04-07T00:26:00;5.9;;;4.7;;
23252;SDS011;11795;47.054;15.408;2023-04-07T00:28:00;6.1;;;4.5;;
23252;SDS011;11795;47.054;15.408;2023-04-07T00:30:00;6.1;;;4.5;;
23252;SDS011;11795;47.054;15.408;2023-04-07T00:32:00;6.1;;;4.5;;
23252;SDS011;11795;47.054;15.408;2023-04-07T00:34:00;7.2;;;4.8;;
23252;SDS011;11795;47.054;15.408;2023-04-07T00:36:00;7.2;;;4.8;;
23252;SDS011;11795;47.054;15.408;2023-04-07T00:38:00;5.5;;;4.4;;
23252;SDS011;11795;47.054;15.408;2023-04-07T00:40:00;5.5;;;4.4;;
23252;SDS011;11795;47.054;15.408;2023-04-07T00:42:02;5.5;;;4.4;;
23252;SDS011;11795;47.054;15.408;2023-04-07T00:44:00;6.1;;;4.5;;
23252;SDS011;11795;47.054;15.408;2023-04-07T00:46:00;6.1;;;4.5;;
23252;SDS011;11795;47.054;15.408;2023-04-07T00:48:00;6.0;;;4.3;;
23252;SDS011;11795;47.054;15.408;2023-04-07T00:50:01;6.0;;;4.3;;
23252;SDS011;11795;47.054;15.408;2023-04-07T00:52:00;6.0;;;4.3;;
23252;SDS011;11795;47.054;15.408;2023-04-07T00:54:00;5.1;;;4.0;;
23252;SDS011;11795;47.054;15.408;2023-04-07T00:56:01;5.1;;;4.0;;
23252;SDS011;11795;47.054;15.408;2023-04-07T00:58:00;5.0;;;3.8;;
23252;SDS011;11795;47.054;15.408;2023-04-07T01:00:00;5.0;;;3.8;;
23252;SDS011;11795;47.054;15.408;2023-04-07T01:02:01;5.0;;;3.8;;
23252;SDS011;11795;47.054;15.408;2023-04-07T01:04:00;6.4;;;4.7;;
23252;SDS011;11795;47.054;15.408;2023-04-07T01:06:01;6.4;;;4.7;;
23252;SDS011;11795;47.054;15.408;2023-04-07T01:08:03;5.8;;;4.0;;
23252;SDS011;11795;47.054;15.408;2023-04-07T01:10:00;5.8;;;4.0;;
23252;SDS011;11795;47.054;15.408;2023-04-07T01:12:03;5.8;;;4.0;;
23252;SDS011;11795;47.054;15.408;2023-04-07T01:14:00;7.5;;;5.0;;
23252;SDS011;11795;47.054;15.408;2023-04-07T01:16:02;7.5;;;5.0;;
23252;SDS011;11795;47.054;15.408;2023-04-07T01:18:04;5.8;;;4.5;;
23252;SDS011;11795;47.054;15.408;2023-04-07T01:20:01;5.8;;;4.5;;
23252;SDS011;11795;47.054;15.408;2023-04-07T01:22:00;5.8;;;4.5;;
23252;SDS011;11795;47.054;15.408;2023-04-07T01:24:04;5.6;;;5.0;;
23252;SDS011;11795;47.054;15.408;2023-04-07T01:26:04;5.6;;;5.0;;
23252;SDS011;11795;47.054;15.408;2023-04-07T01:28:09;6.7;;;5.5;;
23252;SDS011;11795;47.054;15.408;2023-04-07T01:30:00;6.7;;;5.5;;
23252;SDS011;11795;47.054;15.408;2023-04-07T01:32:01;6.7;;;5.5;;
23252;SDS011;11795;47.054;15.408;2023-04-07T01:34:00;7.3;;;6.0;;
23252;SDS011;11795;47.054;15.408;2023-04-07T01:36:00;7.3;;;6.0;;
23252;SDS011;11795;47.054;15.408;2023-04-07T01:38:00;7.2;;;5.1;;
23252;SDS011;11795;47.054;15.408;2023-04-07T01:40:00;7.2;;;5.1;;
23252;SDS011;11795;47.054;15.408;2023-04-07T01:42:01;7.2;;;5.1;;
23252;SDS011;11795;47.054;15.408;2023-04-07T01:44:00;6.2;;;4.9;;
23252;SDS011;11795;47.054;15.408;2023-04-07T01:46:00;6.2;;;4.9;;
23252;SDS011;11795;47.054;15.408;2023-04-07T01:48:00;7.3;;;5.2;;
23252;SDS011;11795;47.054;15.408;2023-04-07T01:50:00;7.3;;;5.2;;
23252;SDS011;11795;47.054;15.408;2023-04-07T01:52:00;7.3;;;5.2;;
23252;SDS011;11795;47.054;15.408;2023-04-07T01:54:00;6.4;;;5.5;;
23252;SDS011;11795;47.054;15.408;2023-04-07T01:56:00;6.4;;;5.5;;
23252;SDS011;11795;47.054;15.408;2023-04-07T01:58:03;7.3;;;5.0;;
23252;SDS011;11795;47.054;15.408;2023-04-07T02:00:00;7.3;;;5.0;;
23252;SDS011;11795;47.054;15.408;2023-04-07T02:02:00;7.3;;;5.0;;
23252;SDS011;11795;47.054;15.408;2023-04-07T02:04:01;6.2;;;4.8;;
23252;SDS011;11795;47.054;15.408;2023-04-07T02:06:01;6.2;;;4.8;;
23252;SDS011;11795;47.054;15.408;2023-04-07T02:08:01;6.2;;;4.8;;
23252;SDS011;11795;47.054;15.408;2023-04-07T02:10:01;7.8;;;4.9;;
23252;SDS011;11795;47.054;15.408;2023-04-07T02:12:00;7.8;;;4.9;;
23252;SDS011;11795;47.054;15.408;2023-04-07T02:14:01;6.8;;;5.1;;
23252;SDS011;11795;47.054;15.408;2023-04-07T02:16:01;6.8;;;5.1;;
23252;SDS011;11795;47.054;15.408;2023-04-07T02:18:00;6.8;;;5.1;;
23252;SDS011;11795;47.054;15.408;2023-04-07T02:20:00;7.9;;;5.3;;
23252;SDS011;11795;47.054;15.408;2023-04-07T02:22:02;7.9;;;5.3;;
23252;SDS011;11795;47.054;15.408;2023-04-07T02:24:00;6.8;;;4.8;;
23252;SDS011;11795;47.054;15.408;2023-04-07T02:26:00;6.8;;;4.8;;
23252;SDS011;11795;47.054;15.408;2023-04-07T02:28:00;6.8;;;4.8;;
23252;SDS011;11795;47.054;15.408;2023-04-07T02:30:00;5.6;;;4.2;;
23252;SDS011;11795;47.054;15.408;2023-04-07T02:32:00;5.6;;;4.2;;
23252;SDS011;11795;47.054;15.408;2023-04-07T02:34:00;7.0;;;5.1;;
23252;SDS011;11795;47.054;15.408;2023-04-07T02:36:00;7.0;;;5.1;;
23252;SDS011;11795;47.054;15.408;2023-04-07T02:38:00;7.0;;;5.1;;
23252;SDS011;11795;47.054;15.408;2023-04-07T02:40:00;6.8;;;4.7;;
23252;SDS011;11795;47.054;15.408;2023-04-07T02:42:00;6.8;;;4.7;;
23252;SDS011;11795;47.054;15.408;2023-04-07T02:44:00;7.9;;;5.0;;
23252;SDS011;11795;47.054;15.408;2023-04-07T02:46:00;7.9;;;5.0;;
23252;SDS011;11795;47.054;15.408;2023-04-07T02:48:00;7.9;;;5.0;;
23252;SDS011;11795;47.054;15.408;2023-04-07T02:50:00;6.1;;;4.9;;
23252;SDS011;11795;47.054;15.408;2023-04-07T02:52:00;6.1;;;4.9;;
23252;SDS011;11795;47.054;15.408;2023-04-07T02:54:00;6.0;;;5.0;;
23252;SDS011;11795;47.054;15.408;2023-04-07T02:56:00;6.0;;;5.0;;
23252;SDS011;11795;47.054;15.408;2023-04-07T02:58:00;6.0;;;5.0;;
23252;SDS011;11795;47.054;15.408;2023-04-07T03:00:00;6.7;;;4.7;;
23252;SDS011;11795;47.054;15.408;2023-04-07T03:02:00;6.7;;;4.7;;
23252;SDS011;11795;47.054;15.408;2023-04-07T03:04:00;5.9;;;4.7;;
23252;SDS011;11795;47.054;15.408;2023-04-07T03:06:00;5.9;;;4.7;;
23252;SDS011;11795;47.054;15.408;2023-04-07T03:08:00;5.9;;;4.7;;
23252;SDS011;11795;47.054;15.408;2023-04-07T03:10:00;5.4;;;4.4;;
23252;SDS011;11795;47.054;15.408;2023-04-07T03:12:01;5.4;;;4.4;;
23252;SDS011;11795;47.054;15.408;2023-04-07T03:14:00;5.9;;;4.7;;
23252;SDS011;11795;47.054;15.408;2023-04-07T03:16:00;5.9;;;4.7;;
23252;SDS011;11795;47.054;15.408;2023-04-07T03:18:00;5.9;;;4.7;;
23252;SDS011;11795;47.054;15.408;2023-04-07T03:20:01;6.0;;;4.6;;
23252;SDS011;11795;47.054;15.408;2023-04-07T03:22:00;6.0;;;4.6;;
23252;SDS011;11795;47.054;15.408;2023-04-07T03:24:00;5.5;;;4.5;;
23252;SDS011;11795;47.054;15.408;2023-04-07T03:26:00;5.5;;;4.5;;
23252;SDS011;11795;47.054;15.408;2023-04-07T03:28:00;5.5;;;4.5;;
23252;SDS011;11795;47.054;15.408;2023-04-07T03:30:00;5.6;;;4.4;;
23252;SDS011;11795;47.054;15.408;2023-04-07T03:32:00;5.6;;;4.4;;
23252;SDS011;11795;47.054;15.408;2023-04-07T03:34:00;6.5;;;5.1;;
23252;SDS011;11795;47.054;15.408;2023-04-07T03:36:00;6.5;;;5.1;;
23252;SDS011;11795;47.054;15.408;2023-04-07T03:38:00;6.5;;;5.1;;
23252;SDS011;11795;47.054;15.408;2023-04-07T03:40:00;6.0;;;4.8;;
23252;SDS011;11795;47.054;15.408;2023-04-07T03:42:00;6.0;;;4.8;;
23252;SDS011;11795;47.054;15.408;2023-04-07T03:44:00;6.8;;;5.1;;
23252;SDS011;11795;47.054;15.408;2023-04-07T03:46:00;6.8;;;5.1;;
23252;SDS011;11795;47.054;15.408;2023-04-07T03:48:01;6.8;;;5.1;;
23252;SDS011;11795;47.054;15.408;2023-04-07T03:50:00;8.3;;;5.2;;
23252;SDS011;11795;47.054;15.408;2023-04-07T03:52:00;8.3;;;5.2;;
23252;SDS011;11795;47.054;15.408;2023-04-07T03:54:00;6.6;;;5.2;;
23252;SDS011;11795;47.054;15.408;2023-04-07T03:56:00;6.6;;;5.2;;
23252;SDS011;11795;47.054;15.408;2023-04-07T03:58:00;6.6;;;5.2;;
23252;SDS011;11795;47.054;15.408;2023-04-07T04:00:00;5.6;;;4.8;;
23252;SDS011;11795;47.054;15.408;2023-04-07T04:02:00;5.6;;;4.8;;
23252;SDS011;11795;47.054;15.408;2023-04-07T04:04:01;5.3;;;4.6;;
23252;SDS011;11795;47.054;15.408;2023-04-07T04:06:00;5.3;;;4.6;;
23252;SDS011;11795;47.054;15.408;2023-04-07T04:08:00;5.3;;;4.6;;
23252;SDS011;11795;47.054;15.408;2023-04-07T04:10:00;6.7;;;5.1;;
23252;SDS011;11795;47.054;15.408;2023-04-07T04:12:00;6.7;;;5.1;;
23252;SDS011;11795;47.054;15.408;2023-04-07T04:14:00;6.5;;;5.0;;
23252;SDS011;11795;47.054;15.408;2023-04-07T04:16:01;6.5;;;5.0;;
23252;SDS011;11795;47.054;15.408;2023-04-07T04:18:00;6.5;;;5.0;;
23252;SDS011;11795;47.054;15.408;2023-04-07T04:20:00;9.2;;;5.7;;
23252;SDS011;11795;47.054;15.408;2023-04-07T04:22:00;9.2;;;5.7;;
23252;SDS011;11795;47.054;15.408;2023-04-07T04:24:00;8.4;;;5.7;;
23252;SDS011;11795;47.054;15.408;2023-04-07T04:26:02;8.4;;;5.7;;
23252;SDS011;11795;47.054;15.408;2023-04-07T04:28:00;8.4;;;5.7;;
23252;SDS011;11795;47.054;15.408;2023-04-07T04:30:00;8.3;;;5.5;;
23252;SDS011;11795;47.054;15.408;2023-04-07T04:32:00;8.3;;;5.5;;
23252;SDS011;11795;47.054;15.408;2023-04-07T04:34:00;7.4;;;5.7;;
23252;SDS011;11795;47.054;15.408;2023-04-07T04:36:00;7.4;;;5.7;;
23252;SDS011;11795;47.054;15.408;2023-04-07T04:38:00;7.4;;;5.7;;
23252;SDS011;11795;47.054;15.408;2023-04-07T04:40:00;7.9;;;5.8;;
23252;SDS011;11795;47.054;15.408;2023-04-07T04:42:01;7.9;;;5.8;;
23252;SDS011;11795;47.054;15.408;2023-04-07T04:44:00;7.6;;;5.2;;
23252;SDS011;11795;47.054;15.408;2023-04-07T04:46:00;7.6;;;5.2;;
23252;SDS011;11795;47.054;15.408;2023-04-07T04:48:00;7.6;;;5.2;;
23252;SDS011;11795;47.054;15.408;2023-04-07T04:50:00;8.1;;;5.7;;
23252;SDS011;11795;47.054;15.408;2023-04-07T04:52:00;8.1;;;5.7;;
23252;SDS011;11795;47.054;15.408;2023-04-07T04:54:03;7.1;;;5.1;;
23252;SDS011;11795;47.054;15.408;2023-04-07T04:56:00;7.1;;;5.1;;
23252;SDS011;11795;47.054;15.408;2023-04-07T04:58:00;7.1;;;5.1;;
23252;SDS011;11795;47.054;15.408;2023-04-07T05:00:00;7.9;;;5.6;;
23252;SDS011;11795;47.054;15.408;2023-04-07T05:02:00;7.9;;;5.6;;
23252;SDS011;11795;47.054;15.408;2023-04-07T05:04:00;6.2;;;5.0;;
23252;SDS011;11795;47.054;15.408;2023-04-07T05:06:00;6.2;;;5.0;;
23252;SDS011;11795;47.054;15.408;2023-04-07T05:08:00;6.2;;;5.0;;
23252;SDS011;11795;47.054;15.408;2023-04-07T05:10:00;7.1;;;4.9;;
23252;SDS011;11795;47.054;15.408;2023-04-07T05:12:01;7.1;;;4.9;;
23252;SDS011;11795;47.054;15.408;2023-04-07T05:14:00;6.5;;;4.9;;
23252;SDS011;11795;47.054;15.408;2023-04-07T05:16:00;6.5;;;4.9;;
23252;SDS011;11795;47.054;15.408;2023-04-07T05:18:00;6.5;;;4.9;;
23252;SDS011;11795;47.054;15.408;2023-04-07T05:20:00;7.9;;;5.6;;
23252;SDS011;11795;47.054;15.408;2023-04-07T05:22:00;7.9;;;5.6;;
23252;SDS011;11795;47.054;15.408;2023-04-07T05:24:00;6.4;;;5.2;;
23252;SDS011;11795;47.054;15.408;2023-04-07T05:26:00;6.4;;;5.2;;
23252;SDS011;11795;47.054;15.408;2023-04-07T05:28:00;6.4;;;5.2;;
23252;SDS011;11795;47.054;15.408;2023-04-07T05:30:00;9.4;;;6.0;;
23252;SDS011;11795;47.054;15.408;2023-04-07T05:32:00;9.4;;;6.0;;
23252;SDS011;11795;47.054;15.408;2023-04-07T05:34:00;10.5;;;6.8;;
23252;SDS011;11795;47.054;15.408;2023-04-07T05:36:00;10.5;;;6.8;;
23252;SDS011;11795;47.054;15.408;2023-04-07T05:38:00;10.5;;;6.8;;
23252;SDS011;11795;47.054;15.408;2023-04-07T05:40:00;7.9;;;6.1;;
23252;SDS011;11795;47.054;15.408;2023-04-07T05:42:01;7.9;;;6.1;;
23252;SDS011;11795;47.054;15.408;2023-04-07T05:44:00;6.4;;;5.8;;
23252;SDS011;11795;47.054;15.408;2023-04-07T05:46:00;6.4;;;5.8;;
23252;SDS011;11795;47.054;15.408;2023-04-07T05:48:00;6.4;;;5.8;;
23252;SDS011;11795;47.054;15.408;2023-04-07T05:50:00;7.4;;;6.0;;
23252;SDS011;11795;47.054;15.408;2023-04-07T05:52:02;7.4;;;6.0;;
23252;SDS011;11795;47.054;15.408;2023-04-07T05:54:00;7.8;;;5.6;;
23252;SDS011;11795;47.054;15.408;2023-04-07T05:56:00;7.8;;;5.6;;
23252;SDS011;11795;47.054;15.408;2023-04-07T05:58:01;7.8;;;5.6;;
23252;SDS011;11795;47.054;15.408;2023-04-07T06:00:00;9.5;;;6.7;;
23252;SDS011;11795;47.054;15.408;2023-04-07T06:02:00;9.5;;;6.7;;
23252;SDS011;11795;47.054;15.408;2023-04-07T06:04:02;9.6;;;6.4;;
23252;SDS011;11795;47.054;15.408;2023-04-07T06:06:00;9.6;;;6.4;;
23252;SDS011;11795;47.054;15.408;2023-04-07T06:08:00;9.6;;;6.4;;
23252;SDS011;11795;47.054;15.408;2023-04-07T06:10:00;8.2;;;6.1;;
23252;SDS011;11795;47.054;15.408;2023-04-07T06:12:01;8.2;;;6.1;;
23252;SDS011;11795;47.054;15.408;2023-04-07T06:14:00;8.8;;;6.0;;
23252;SDS011;11795;47.054;15.408;2023-04-07T06:16:00;8.8;;;6.0;;
23252;SDS011;11795;47.054;15.408;2023-04-07T06:18:00;8.8;;;6.0;;
23252;SDS011;11795;47.054;15.408;2023-04-07T06:20:00;9.2;;;6.2;;
23252;SDS011;11795;47.054;15.408;2023-04-07T06:22:00;9.2;;;6.2;;
23252;SDS011;11795;47.054;15.408;2023-04-07T06:24:00;8.7;;;6.2;;
23252;SDS011;11795;47.054;15.408;2023-04-07T06:26:00;8.7;;;6.2;;
23252;SDS011;11795;47.054;15.408;2023-04-07T06:28:00;8.7;;;6.2;;
23252;SDS011;11795;47.054;15.408;2023-04-07T06:30:00;9.3;;;6.4;;
23252;SDS011;11795;47.054;15.408;2023-04-07T06:32:01;9.3;;;6.4;;
23252;SDS011;11795;47.054;15.408;2023-04-07T06:34:00;11.2;;;6.3;;
23252;SDS011;11795;47.054;15.408;2023-04-07T06:36:00;11.2;;;6.3;;
23252;SDS011;11795;47.054;15.408;2023-04-07T06:38:01;11.2;;;6.3;;
23252;SDS011;11795;47.054;15.408;2023-04-07T06:40:00;9.1;;;6.1;;
23252;SDS011;11795;47.054;15.408;2023-04-07T06:42:00;9.1;;;6.1;;
23252;SDS011;11795;47.054;15.408;2023-04-07T06:44:00;8.6;;;5.9;;
23252;SDS011;11795;47.054;15.408;2023-04-07T06:46:00;8.6;;;5.9;;
23252;SDS011;11795;47.054;15.408;2023-04-07T06:48:00;8.6;;;5.9;;
23252;SDS011;11795;47.054;15.408;2023-04-07T06:50:00;8.4;;;5.9;;
23252;SDS011;11795;47.054;15.408;2023-04-07T06:52:00;8.4;;;5.9;;
23252;SDS011;11795;47.054;15.408;2023-04-07T06:54:00;10.2;;;6.4;;
23252;SDS011;11795;47.054;15.408;2023-04-07T06:56:02;10.2;;;6.4;;
23252;SDS011;11795;47.054;15.408;2023-04-07T06:58:00;10.2;;;6.4;;
23252;SDS011;11795;47.054;15.408;2023-04-07T07:00:00;9.1;;;6.8;;
23252;SDS011;11795;47.054;15.408;2023-04-07T07:02:00;9.1;;;6.8;;
23252;SDS011;11795;47.054;15.408;2023-04-07T07:04:00;10.4;;;6.2;;
23252;SDS011;11795;47.054;15.408;2023-04-07T07:06:00;10.4;;;6.2;;
23252;SDS011;11795;47.054;15.408;2023-04-07T07:08:00;10.4;;;6.2;;
23252;SDS011;11795;47.054;15.408;2023-04-07T07:10:00;7.1;;;6.2;;
23252;SDS011;11795;47.054;15.408;2023-04-07T07:12:01;7.1;;;6.2;;
23252;SDS011;11795;47.054;15.408;2023-04-07T07:14:00;10.5;;;6.4;;
23252;SDS011;11795;47.054;15.408;2023-04-07T07:16:00;10.5;;;6.4;;
23252;SDS011;11795;47.054;15.408;2023-04-07T07:18:00;10.5;;;6.4;;
23252;SDS011;11795;47.054;15.408;2023-04-07T07:20:00;8.4;;;6.0;;
23252;SDS011;11795;47.054;15.408;2023-04-07T07:22:00;8.4;;;6.0;;
23252;SDS011;11795;47.054;15.408;2023-04-07T07:24:00;10.3;;;7.1;;
23252;SDS011;11795;47.054;15.408;2023-04-07T07:26:00;10.3;;;7.1;;
23252;SDS011;11795;47.054;15.408;2023-04-07T07:28:00;10.3;;;7.1;;
23252;SDS011;11795;47.054;15.408;2023-04-07T07:30:00;10.3;;;6.4;;
23252;SDS011;11795;47.054;15.408;2023-04-07T07:32:00;10.3;;;6.4;;
23252;SDS011;11795;47.054;15.408;2023-04-07T07:34:00;9.5;;;6.8;;
23252;SDS011;11795;47.054;15.408;2023-04-07T07:36:00;9.5;;;6.8;;
23252;SDS011;11795;47.054;15.408;2023-04-07T07:38:00;9.5;;;6.8;;
23252;SDS011;11795;47.054;15.408;2023-04-07T07:40:00;8.7;;;6.6;;
23252;SDS011;11795;47.054;15.408;2023-04-07T07:42:00;8.7;;;6.6;;
23252;SDS011;11795;47.054;15.408;2023-04-07T07:44:00;7.8;;;6.5;;
23252;SDS011;11795;47.054;15.408;2023-04-07T07:46:00;7.8;;;6.5;;
23252;SDS011;11795;47.054;15.408;2023-04-07T07:48:00;7.8;;;6.5;;
23252;SDS011;11795;47.054;15.408;2023-04-07T07:50:00;9.0;;;7.1;;
23252;SDS011;11795;47.054;15.408;2023-04-07T07:52:01;9.0;;;7.1;;
23252;SDS011;11795;47.054;15.408;2023-04-07T07:54:00;9.2;;;6.6;;
23252;SDS011;11795;47.054;15.408;2023-04-07T07:56:00;9.2;;;6.6;;
23252;SDS011;11795;47.054;15.408;2023-04-07T07:58:00;9.2;;;6.6;;
23252;SDS011;11795;47.054;15.408;2023-04-07T08:00:00;8.5;;;6.8;;
23252;SDS011;11795;47.054;15.408;2023-04-07T08:02:00;8.5;;;6.8;;
23252;SDS011;11795;47.054;15.408;2023-04-07T08:04:00;7.0;;;6.1;;
23252;SDS011;11795;47.054;15.408;2023-04-07T08:06:00;7.0;;;6.1;;
23252;SDS011;11795;47.054;15.408;2023-04-07T08:08:00;7.0;;;6.1;;
23252;SDS011;11795;47.054;15.408;2023-04-07T08:10:00;10.4;;;7.1;;
23252;SDS011;11795;47.054;15.408;2023-04-07T08:12:00;10.4;;;7.1;;
23252;SDS011;11795;47.054;15.408;2023-04-07T08:14:00;8.0;;;6.4;;
23252;SDS011;11795;47.054;15.408;2023-04-07T08:16:00;8.0;;;6.4;;
23252;SDS011;11795;47.054;15.408;2023-04-07T08:18:03;8.0;;;6.4;;
23252;SDS011;11795;47.054;15.408;2023-04-07T08:20:00;7.7;;;6.0;;
23252;SDS011;11795;47.054;15.408;2023-04-07T08:22:00;7.7;;;6.0;;
23252;SDS011;11795;47.054;15.408;2023-04-07T08:24:00;7.6;;;5.9;;
23252;SDS011;11795;47.054;15.408;2023-04-07T08:26:00;7.6;;;5.9;;
23252;SDS011;11795;47.054;15.408;2023-04-07T08:28:00;7.6;;;5.9;;
23252;SDS011;11795;47.054;15.408;2023-04-07T08:30:00;7.6;;;5.8;;
23252;SDS011;11795;47.054;15.408;2023-04-07T08:32:00;7.6;;;5.8;;
23252;SDS011;11795;47.054;15.408;2023-04-07T08:34:00;6.9;;;5.9;;
23252;SDS011;11795;47.054;15.408;2023-04-07T08:36:00;6.9;;;5.9;;
23252;SDS011;11795;47.054;15.408;2023-04-07T08:38:02;6.9;;;5.9;;
23252;SDS011;11795;47.054;15.408;2023-04-07T08:40:00;7.0;;;5.4;;
23252;SDS011;11795;47.054;15.408;2023-04-07T08:42:00;7.0;;;5.4;;
23252;SDS011;11795;47.054;15.408;2023-04-07T08:44:00;7.5;;;5.4;;
23252;SDS011;11795;47.054;15.408;2023-04-07T08:46:00;7.5;;;5.4;;
23252;SDS011;11795;47.054;15.408;2023-04-07T08:48:00;7.5;;;5.4;;
23252;SDS011;11795;47.054;15.408;2023-04-07T08:50:02;5.7;;;4.8;;
23252;SDS011;11795;47.054;15.408;2023-04-07T08:52:00;5.7;;;4.8;;
23252;SDS011;11795;47.054;15.408;2023-04-07T08:54:02;5.5;;;4.8;;
23252;SDS011;11795;47.054;15.408;2023-04-07T08:56:00;5.5;;;4.8;;
23252;SDS011;11795;47.054;15.408;2023-04-07T08:58:00;5.5;;;4.8;;
23252;SDS011;11795;47.054;15.408;2023-04-07T09:00:05;5.1;;;4.4;;
23252;SDS011;11795;47.054;15.408;2023-04-07T09:02:00;5.1;;;4.4;;
23252;SDS011;11795;47.054;15.408;2023-04-07T09:04:00;6.2;;;4.5;;
23252;SDS011;11795;47.054;15.408;2023-04-07T09:06:00;6.2;;;4.5;;
23252;SDS011;11795;47.054;15.408;2023-04-07T09:08:00;6.2;;;4.5;;
23252;SDS011;11795;47.054;15.408;2023-04-07T09:10:00;5.7;;;4.9;;
23252;SDS011;11795;47.054;15.408;2023-04-07T09:12:00;5.7;;;4.9;;
23252;SDS011;11795;47.054;15.408;2023-04-07T09:14:00;5.3;;;4.7;;
23252;SDS011;11795;47.054;15.408;2023-04-07T09:16:00;5.3;;;4.7;;
23252;SDS011;11795;47.054;15.408;2023-04-07T09:18:00;5.3;;;4.7;;
23252;SDS011;11795;47.054;15.408;2023-04-07T09:20:00;6.0;;;4.3;;
23252;SDS011;11795;47.054;15.408;2023-04-07T09:22:00;6.0;;;4.3;;
23252;SDS011;11795;47.054;15.408;2023-04-07T09:24:00;5.0;;;3.9;;
23252;SDS011;11795;47.054;15.408;2023-04-07T09:26:01;5.0;;;3.9;;
23252;SDS011;11795;47.054;15.408;2023-04-07T09:28:01;5.0;;;3.9;;
23252;SDS011;11795;47.054;15.408;2023-04-07T09:30:09;4.2;;;3.7;;
23252;SDS011;11795;47.054;15.408;2023-04-07T09:32:00;4.2;;;3.7;;
23252;SDS011;11795;47.054;15.408;2023-04-07T09:34:01;5.7;;;4.4;;
23252;SDS011;11795;47.054;15.408;2023-04-07T09:36:00;5.7;;;4.4;;
23252;SDS011;11795;47.054;15.408;2023-04-07T09:38:01;5.7;;;4.4;;
23252;SDS011;11795;47.054;15.408;2023-04-07T09:40:00;4.4;;;4.0;;
23252;SDS011;11795;47.054;15.408;2023-04-07T09:42:03;4.4;;;4.0;;
23252;SDS011;11795;47.054;15.408;2023-04-07T09:44:00;4.6;;;3.7;;
23252;SDS011;11795;47.054;15.408;2023-04-07T09:46:05;4.6;;;3.7;;
23252;SDS011;11795;47.054;15.408;2023-04-07T09:48:03;4.6;;;3.7;;
23252;SDS011;11795;47.054;15.408;2023-04-07T09:50:06;5.3;;;4.5;;
23252;SDS011;11795;47.054;15.408;2023-04-07T09:52:03;5.3;;;4.5;;
23252;SDS011;11795;47.054;15.408;2023-04-07T09:54:00;5.0;;;4.3;;
23252;SDS011;11795;47.054;15.408;2023-04-07T09:56:00;5.0;;;4.3;;
23252;SDS011;11795;47.054;15.408;2023-04-07T09:58:00;5.0;;;4.3;;
23252;SDS011;11795;47.054;15.408;2023-04-07T10:00:00;5.1;;;4.0;;
23252;SDS011;11795;47.054;15.408;2023-04-07T10:02:00;5.1;;;4.0;;
23252;SDS011;11795;47.054;15.408;2023-04-07T10:04:00;4.2;;;3.7;;
23252;SDS011;11795;47.054;15.408;2023-04-07T10:06:01;4.2;;;3.7;;
23252;SDS011;11795;47.054;15.408;2023-04-07T10:08:01;4.2;;;3.7;;
23252;SDS011;11795;47.054;15.408;2023-04-07T10:10:00;4.7;;;3.8;;
23252;SDS011;11795;47.054;15.408;2023-04-07T10:12:00;4.7;;;3.8;;
23252;SDS011;11795;47.054;15.408;2023-04-07T10:14:00;4.2;;;3.7;;
23252;SDS011;11795;47.054;15.408;2023-04-07T10:16:01;4.2;;;3.7;;
23252;SDS011;11795;47.054;15.408;2023-04-07T10:18:00;4.2;;;3.7;;
23252;SDS011;11795;47.054;15.408;2023-04-07T10:20:00;4.4;;;3.5;;
23252;SDS011;11795;47.054;15.408;2023-04-07T10:22:01;4.4;;;3.5;;
23252;SDS011;11795;47.054;15.408;2023-04-07T10:24:03;4.2;;;3.8;;
23252;SDS011;11795;47.054;15.408;2023-04-07T10:26:01;4.2;;;3.8;;
23252;SDS011;11795;47.054;15.408;2023-04-07T10:28:02;4.2;;;3.8;;
23252;SDS011;11795;47.054;15.408;2023-04-07T10:30:00;4.4;;;3.4;;
23252;SDS011;11795;47.054;15.408;2023-04-07T10:32:00;4.4;;;3.4;;
23252;SDS011;11795;47.054;15.408;2023-04-07T10:34:01;5.2;;;3.7;;
23252;SDS011;11795;47.054;15.408;2023-04-07T10:36:02;5.2;;;3.7;;
23252;SDS011;11795;47.054;15.408;2023-04-07T10:38:09;5.2;;;3.7;;
23252;SDS011;11795;47.054;15.408;2023-04-07T10:42:00;3.8;;;3.4;;
23252;SDS011;11795;47.054;15.408;2023-04-07T10:44:02;5.9;;;4.3;;
23252;SDS011;11795;47.054;15.408;2023-04-07T10:46:00;5.9;;;4.3;;
23252;SDS011;11795;47.054;15.408;2023-04-07T10:48:08;5.9;;;4.3;;
23252;SDS011;11795;47.054;15.408;2023-04-07T10:56:00;5.0;;;3.4;;
23252;SDS011;11795;47.054;15.408;2023-04-07T11:04:00;5.6;;;3.3;;
23252;SDS011;11795;47.054;15.408;2023-04-07T11:06:02;5.6;;;3.3;;
23252;SDS011;11795;47.054;15.408;2023-04-07T11:08:04;5.6;;;3.3;;
23252;SDS011;11795;47.054;15.408;2023-04-07T11:10:07;4.1;;;3.4;;
23252;SDS011;11795;47.054;15.408;2023-04-07T11:12:00;4.1;;;3.4;;
23252;SDS011;11795;47.054;15.408;2023-04-07T11:14:00;3.0;;;2.7;;
23252;SDS011;11795;47.054;15.408;2023-04-07T11:16:00;3.0;;;2.7;;
23252;SDS011;11795;47.054;15.408;2023-04-07T11:18:08;3.0;;;2.7;;
23252;SDS011;11795;47.054;15.408;2023-04-07T11:20:00;3.8;;;3.1;;
23252;SDS011;11795;47.054;15.408;2023-04-07T11:24:00;3.8;;;3.1;;
23252;SDS011;11795;47.054;15.408;2023-04-07T11:26:01;4.3;;;3.0;;
23252;SDS011;11795;47.054;15.408;2023-04-07T11:28:02;4.3;;;3.0;;
23252;SDS011;11795;47.054;15.408;2023-04-07T11:30:00;5.1;;;3.0;;
23252;SDS011;11795;47.054;15.408;2023-04-07T11:32:01;5.1;;;3.0;;
23252;SDS011;11795;47.054;15.408;2023-04-07T11:34:01;5.1;;;3.0;;
23252;SDS011;11795;47.054;15.408;2023-04-07T11:36:01;4.9;;;3.0;;
23252;SDS011;11795;47.054;15.408;2023-04-07T11:38:01;4.9;;;3.0;;
23252;SDS011;11795;47.054;15.408;2023-04-07T11:40:00;5.1;;;3.1;;
23252;SDS011;11795;47.054;15.408;2023-04-07T11:42:00;5.1;;;3.1;;
23252;SDS011;11795;47.054;15.408;2023-04-07T11:44:04;5.1;;;3.1;;
23252;SDS011;11795;47.054;15.408;2023-04-07T11:46:04;3.5;;;2.9;;
23252;SDS011;11795;47.054;15.408;2023-04-07T11:48:00;3.5;;;2.9;;
23252;SDS011;11795;47.054;15.408;2023-04-07T11:50:00;4.3;;;3.2;;
23252;SDS011;11795;47.054;15.408;2023-04-07T11:52:01;4.3;;;3.2;;
23252;SDS011;11795;47.054;15.408;2023-04-07T11:54:00;4.3;;;3.2;;
23252;SDS011;11795;47.054;15.408;2023-04-07T11:56:01;3.4;;;3.1;;
23252;SDS011;11795;47.054;15.408;2023-04-07T11:58:07;3.4;;;3.1;;
23252;SDS011;11795;47.054;15.408;2023-04-07T12:00:04;3.7;;;3.3;;
23252;SDS011;11795;47.054;15.408;2023-04-07T12:02:00;3.7;;;3.3;;
23252;SDS011;11795;47.054;15.408;2023-04-07T12:04:01;3.7;;;3.3;;
23252;SDS011;11795;47.054;15.408;2023-04-07T12:06:00;5.3;;;3.4;;
23252;SDS011;11795;47.054;15.408;2023-04-07T12:08:00;5.3;;;3.4;;
23252;SDS011;11795;47.054;15.408;2023-04-07T12:12:01;4.4;;;3.4;;
23252;SDS011;11795;47.054;15.408;2023-04-07T12:14:01;4.4;;;3.4;;
23252;SDS011;11795;47.054;15.408;2023-04-07T12:16:00;3.8;;;3.1;;
23252;SDS011;11795;47.054;15.408;2023-04-07T12:18:01;3.8;;;3.1;;
23252;SDS011;11795;47.054;15.408;2023-04-07T12:20:00;3.9;;;3.4;;
23252;SDS011;11795;47.054;15.408;2023-04-07T12:22:00;3.9;;;3.4;;
23252;SDS011;11795;47.054;15.408;2023-04-07T12:24:01;3.9;;;3.4;;
23252;SDS011;11795;47.054;15.408;2023-04-07T12:26:01;3.6;;;3.1;;
23252;SDS011;11795;47.054;15.408;2023-04-07T12:28:00;3.6;;;3.1;;
23252;SDS011;11795;47.054;15.408;2023-04-07T12:30:00;4.8;;;3.5;;